Time;durP1;ratioP1;P1;durP2;ratioP2;P2;SDS_P1;SDS_P2;PMS_P1;PMS_P2;Temp;Humidity;BMP_temperature;BMP_pressure;BME280_temperature;BME280_humidity;BME280_pressure;Samples;Min_cycle;Max_cycle;Signal;HPM_P1;HPM_P2
2023/10/14 00:01:01;;;;;;;0.10;0.10;;;;;;;21.64;67.36;100081.78;5068404;28;20044;-63
2023/10/14 00:03:32;;;;;;;0.20;0.20;;;;;;;21.44;67.63;100082.34;5068001;28;20056;-66
2023/10/14 00:06:00;;;;;;;0.20;0.20;;;;;;;22.04;65.83;100072.41;5068802;28;20052;-65
2023/10/14 00:08:27;;;;;;;0.20;0.20;;;;;;;21.44;68.06;100077.69;5068389;28;20488;-64
2023/10/14 00:10:53;;;;;;;0.20;0.20;;;;;;;21.20;68.66;100079.16;5053197;28;20112;-64
2023/10/14 00:13:18;;;;;;;0.20;0.20;;;;;;;20.91;70.25;100087.81;5081419;28;20447;-64
2023/10/14 00:15:45;;;;;;;0.20;0.20;;;;;;;20.73;71.44;100105.19;5068138;28;20028;-63
2023/10/14 00:18:11;;;;;;;0.20;0.20;;;;;;;20.15;72.45;100116.84;5068645;28;20082;-65
2023/10/14 00:20:37;;;;;;;0.15;0.15;;;;;;;19.22;76.69;100108.31;5068003;28;20032;-64
2023/10/14 00:23:04;;;;;;;0.10;0.10;;;;;;;18.92;77.59;100130.63;5068242;28;20028;-64
2023/10/14 00:25:31;;;;;;;0.22;0.22;;;;;;;18.52;78.96;100134.78;5068048;28;20032;-64
2023/10/14 00:27:57;;;;;;;0.13;0.13;;;;;;;18.74;79.45;100139.63;5067923;28;20050;-64
2023/10/14 00:30:26;;;;;;;0.20;0.20;;;;;;;19.04;76.46;100166.38;5068227;28;20024;-65
2023/10/14 00:32:52;;;;;;;0.30;0.30;;;;;;;18.68;78.23;100136.16;5052409;28;20017;-64
2023/10/14 00:35:19;;;;;;;0.20;0.20;;;;;;;19.32;74.83;100150.91;5068274;28;20040;-64
2023/10/14 00:37:44;;;;;;;0.20;0.20;;;;;;;18.22;80.41;100157.72;5067902;28;20040;-66
2023/10/14 00:40:22;;;;;;;0.10;0.10;;;;;;;18.46;77.86;100165.06;5067836;28;20033;-64
2023/10/14 00:42:49;;;;;;;0.22;0.22;;;;;;;19.25;74.45;100168.47;5071731;28;20082;-64
2023/10/14 00:45:14;;;;;;;0.22;0.22;;;;;;;19.01;74.54;100184.09;5072383;28;20029;-64
2023/10/14 00:47:40;;;;;;;0.20;0.20;;;;;;;19.68;72.51;100185.44;5071476;28;20037;-65
2023/10/14 00:52:57;;;;;;;0.20;0.20;;;;;;;19.12;73.12;100206.56;5071624;28;20276;-65
2023/10/14 00:55:27;;;;;;;0.10;0.10;;;;;;;18.87;73.57;100213.19;5071277;28;20052;-64
2023/10/14 00:57:55;;;;;;;0.20;0.20;;;;;;;19.11;72.21;100208.47;5071138;28;20029;-64
2023/10/14 01:00:37;;;;;;;0.20;0.20;;;;;;;19.54;71.00;100200.13;5071434;28;20021;-66
2023/10/14 01:03:07;;;;;;;0.20;0.20;;;;;;;18.68;74.19;100211.56;5056843;28;20044;-65
2023/10/14 01:05:35;;;;;;;0.20;0.20;;;;;;;18.90;71.40;100214.50;5071352;28;20044;-63
2023/10/14 01:08:03;;;;;;;0.20;0.20;;;;;;;19.53;69.94;100220.34;5061431;28;20119;-64
2023/10/14 01:10:29;;;;;;;0.20;0.20;;;;;;;19.14;70.27;100220.69;5074540;28;20579;-65
2023/10/14 01:12:55;;;;;;;0.20;0.20;;;;;;;19.77;68.01;100219.06;5071176;28;20051;-64
2023/10/14 01:15:21;;;;;;;0.20;0.20;;;;;;;19.65;69.77;100216.03;5071851;28;20016;-64
2023/10/14 01:17:48;;;;;;;0.20;0.20;;;;;;;19.83;68.92;100220.59;5071625;28;20416;-64
2023/10/14 01:22:40;;;;;;;0.10;0.10;;;;;;;19.75;69.10;100225.94;5070941;28;20094;-65
2023/10/14 01:25:11;;;;;;;0.20;0.20;;;;;;;19.96;66.33;100236.19;5070837;28;20036;-63
2023/10/14 01:27:37;;;;;;;0.20;0.20;;;;;;;19.61;68.88;100241.47;5071158;28;20024;-64
2023/10/14 01:30:10;;;;;;;0.20;0.20;;;;;;;20.06;66.79;100243.34;5071594;28;20021;-63
2023/10/14 01:37:55;;;;;;;0.20;0.20;;;;;;;19.92;65.99;100270.63;5070827;28;20127;-63
2023/10/14 01:42:48;;;;;;;0.10;0.10;;;;;;;19.09;68.21;100286.94;5070821;28;20033;-64
2023/10/14 01:45:20;;;;;;;0.10;0.10;;;;;;;19.64;65.19;100279.81;5071324;28;20025;-64
2023/10/14 01:48:05;;;;;;;0.20;0.20;;;;;;;20.69;62.15;100290.69;5071174;28;20059;-63
2023/10/14 01:50:31;;;;;;;0.20;0.20;;;;;;;20.55;61.65;100297.25;5070500;28;20075;-65
2023/10/14 01:53:00;;;;;;;0.13;0.13;;;;;;;20.84;61.57;100303.19;5069471;28;20024;-65
2023/10/14 01:55:26;;;;;;;0.20;0.20;;;;;;;21.13;60.38;100306.41;5070499;28;20123;-64
2023/10/14 01:57:53;;;;;;;0.13;0.13;;;;;;;20.45;60.55;100317.38;5052158;28;20119;-64
2023/10/14 02:00:35;;;;;;;0.20;0.20;;;;;;;20.57;61.51;100319.59;5070855;28;20035;-65
2023/10/14 02:03:05;;;;;;;0.20;0.20;;;;;;;19.79;64.33;100323.19;5055315;28;20415;-65
2023/10/14 02:05:34;;;;;;;0.10;0.10;;;;;;;19.45;64.95;100340.94;5080603;28;20032;-64
2023/10/14 02:07:59;;;;;;;0.20;0.20;;;;;;;20.30;62.24;100331.34;5070302;28;20135;-64
2023/10/14 02:10:25;;;;;;;0.20;0.20;;;;;;;19.82;63.91;100343.59;5070187;28;20025;-63
2023/10/14 02:12:51;;;;;;;0.20;0.20;;;;;;;19.38;64.36;100343.22;5070285;28;20361;-63
2023/10/14 02:15:16;;;;;;;0.10;0.10;;;;;;;18.98;67.06;100339.94;5070581;28;20048;-63
2023/10/14 02:17:42;;;;;;;0.10;0.10;;;;;;;19.71;62.20;100344.88;5070405;28;20045;-64
2023/10/14 02:20:20;;;;;;;0.20;0.20;;;;;;;19.40;63.16;100355.44;5070039;28;20040;-64
2023/10/14 02:22:46;;;;;;;0.10;0.10;;;;;;;19.43;63.66;100363.03;5070053;28;20032;-63
2023/10/14 02:25:15;;;;;;;0.17;0.17;;;;;;;19.28;61.90;100368.69;5070007;28;20510;-64
2023/10/14 02:27:42;;;;;;;0.10;0.10;;;;;;;19.09;61.85;100373.28;5069748;28;20024;-64
2023/10/14 02:30:09;;;;;;;0.20;0.20;;;;;;;18.90;62.96;100375.16;5070460;28;20111;-64
2023/10/14 02:32:35;;;;;;;0.20;0.20;;;;;;;18.85;62.35;100386.13;5069786;28;20032;-63
2023/10/14 02:35:00;;;;;;;0.15;0.15;;;;;;;19.33;61.04;100395.06;5069784;28;20074;-64
2023/10/14 02:37:26;;;;;;;0.20;0.20;;;;;;;18.74;62.49;100403.66;5069843;28;20028;-63
2023/10/14 02:39:51;;;;;;;0.10;0.10;;;;;;;19.20;62.09;100408.25;5069618;28;20032;-65
2023/10/14 02:42:17;;;;;;;0.28;0.28;;;;;;;18.62;62.13;100414.94;5051949;28;20043;-64
2023/10/14 02:44:54;;;;;;;0.13;0.13;;;;;;;19.00;59.89;100426.78;5069840;28;20040;-63
2023/10/14 02:47:20;;;;;;;0.20;0.20;;;;;;;19.05;59.28;100434.88;5069450;28;20045;-64
2023/10/14 02:49:53;;;;;;;0.10;0.10;;;;;;;19.56;58.72;100438.59;5069631;28;20048;-64
2023/10/14 02:52:20;;;;;;;0.17;0.17;;;;;;;18.83;60.84;100442.78;5069699;28;20521;-64
2023/10/14 02:54:59;;;;;;;0.10;0.10;;;;;;;18.97;59.68;100455.41;5050912;28;20044;-64
2023/10/14 02:57:26;;;;;;;0.10;0.10;;;;;;;19.23;58.80;100453.19;5069336;28;20024;-65
2023/10/14 02:59:55;;;;;;;0.20;0.20;;;;;;;19.49;57.83;100459.16;5069734;28;20461;-63
2023/10/14 03:02:25;;;;;;;0.20;0.20;;;;;;;19.49;57.38;100473.59;5069212;28;20412;-63
2023/10/14 03:07:33;;;;;;;0.22;0.22;;;;;;;19.28;58.00;100485.84;5069740;28;20040;-64
2023/10/14 03:10:27;;;;;;;0.28;0.28;;;;;;;18.63;59.47;100481.91;5069366;28;20029;-64
2023/10/14 03:12:53;;;;;;;0.20;0.20;;;;;;;19.01;58.08;100500.03;5052627;28;20460;-63
2023/10/14 03:15:21;;;;;;;0.20;0.20;;;;;;;18.98;57.62;100492.44;5069695;28;20028;-65
2023/10/14 03:18:04;;;;;;;0.20;0.20;;;;;;;19.20;57.65;100505.53;5069584;28;20407;-64
2023/10/14 03:20:39;;;;;;;0.30;0.30;;;;;;;19.14;56.78;100503.97;5068954;28;20044;-65
2023/10/14 03:25:45;;;;;;;0.30;0.30;;;;;;;19.24;56.69;100523.72;5069017;28;20115;-66
2023/10/14 03:28:12;;;;;;;0.15;0.15;;;;;;;18.83;58.64;100524.47;5069139;28;20444;-64
2023/10/14 03:30:54;;;;;;;0.22;0.22;;;;;;;18.47;58.50;100528.59;5069169;28;20024;-64
2023/10/14 03:33:21;;;;;;;0.20;0.20;;;;;;;18.47;58.61;100540.28;5069378;28;20028;-64
2023/10/14 03:35:56;;;;;;;0.20;0.20;;;;;;;18.80;58.72;100544.06;5069361;28;20036;-64
2023/10/14 03:38:25;;;;;;;0.20;0.20;;;;;;;18.56;58.47;100552.19;5068946;28;20029;-64
2023/10/14 03:41:03;;;;;;;0.20;0.20;;;;;;;18.77;59.06;100558.28;5068243;28;20042;-64
2023/10/14 03:43:48;;;;;;;0.10;0.10;;;;;;;17.91;60.93;100568.91;5068707;28;20028;-65
2023/10/14 03:46:15;;;;;;;0.20;0.20;;;;;;;18.35;60.48;100564.28;5069272;28;20028;-64
2023/10/14 03:48:47;;;;;;;0.20;0.20;;;;;;;18.63;59.06;100574.47;5068983;28;20464;-64
2023/10/14 03:51:25;;;;;;;0.22;0.22;;;;;;;18.74;58.53;100577.88;5069068;28;20016;-64
2023/10/14 03:54:08;;;;;;;0.20;0.20;;;;;;;19.73;54.72;100577.97;5068868;28;20120;-65
2023/10/14 03:56:34;;;;;;;0.20;0.20;;;;;;;19.30;56.73;100581.72;5074489;28;20496;-65
2023/10/14 03:59:01;;;;;;;0.30;0.30;;;;;;;19.68;56.17;100590.84;5050394;28;20105;-64
2023/10/14 04:01:43;;;;;;;0.20;0.20;;;;;;;19.66;54.43;100598.50;5062137;28;20037;-65
2023/10/14 04:04:20;;;;;;;0.30;0.30;;;;;;;18.95;56.77;100599.22;5052520;28;20504;-62
2023/10/14 04:09:36;;;;;;;0.30;0.30;;;;;;;18.85;56.43;100609.41;5068127;28;20011;-64
2023/10/14 04:12:06;;;;;;;0.30;0.30;;;;;;;18.67;57.51;100618.25;5068359;28;20025;-64
2023/10/14 04:14:35;;;;;;;;;;;;;;;18.99;57.68;100616.59;5068404;28;20051;-65
2023/10/14 04:17:10;;;;;;;0.30;0.30;;;;;;;18.92;56.75;100618.03;5071117;28;19923;-63
2023/10/14 04:19:47;;;;;;;0.30;0.30;;;;;;;18.60;57.82;100623.19;5071945;28;20463;-63
2023/10/14 04:22:31;;;;;;;0.20;0.20;;;;;;;18.03;59.54;100634.66;5072607;28;20029;-64
2023/10/14 04:27:45;;;;;;;0.22;0.22;;;;;;;18.33;57.97;100645.38;5071900;28;20051;-64
2023/10/14 04:30:13;;;;;;;0.20;0.20;;;;;;;18.37;59.42;100647.25;5072851;28;20044;-63
2023/10/14 04:33:03;;;;;;;0.30;0.30;;;;;;;18.52;58.83;100649.09;5072234;28;20531;-64
2023/10/14 04:35:33;;;;;;;0.20;0.20;;;;;;;18.80;57.66;100650.25;5054109;28;20036;-64
2023/10/14 04:38:12;;;;;;;0.20;0.20;;;;;;;18.11;59.72;100659.38;5072275;28;20028;-64
2023/10/14 04:40:38;;;;;;;0.20;0.20;;;;;;;18.33;58.36;100657.09;5072039;28;20036;-64
2023/10/14 04:43:18;;;;;;;0.20;0.20;;;;;;;18.29;59.08;100661.44;5071870;28;20032;-64
2023/10/14 04:45:52;;;;;;;0.20;0.20;;;;;;;18.59;57.34;100662.41;5071929;28;20506;-64
2023/10/14 04:51:06;;;;;;;0.20;0.20;;;;;;;18.98;55.26;100679.53;5056674;28;20021;-64
2023/10/14 04:53:31;;;;;;;0.30;0.30;;;;;;;19.37;54.60;100677.59;5075573;28;20078;-63
2023/10/14 04:56:01;;;;;;;0.20;0.20;;;;;;;18.81;55.69;100690.03;5071946;28;20036;-65
2023/10/14 04:58:27;;;;;;;0.30;0.30;;;;;;;18.47;57.99;100691.84;5071167;28;20039;-64
2023/10/14 05:00:56;;;;;;;0.20;0.20;;;;;;;18.80;55.58;100696.53;5071426;28;20033;-64
2023/10/14 05:03:21;;;;;;;0.35;0.35;;;;;;;18.92;55.60;100697.00;5071386;28;20041;-64
2023/10/14 05:05:56;;;;;;;0.32;0.32;;;;;;;18.67;56.30;100699.91;5072085;28;20020;-63
2023/10/14 05:08:23;;;;;;;0.15;0.15;;;;;;;18.91;56.07;100706.25;5071466;28;20028;-63
2023/10/14 05:10:52;;;;;;;0.20;0.20;;;;;;;18.69;57.03;100706.69;5071200;28;20032;-63
2023/10/14 05:13:31;;;;;;;0.20;0.20;;;;;;;19.07;56.26;100718.69;5071362;28;20103;-64
2023/10/14 05:16:20;;;;;;;0.20;0.20;;;;;;;18.94;56.04;100724.78;5071416;28;20032;-62
2023/10/14 05:19:07;;;;;;;0.20;0.20;;;;;;;19.11;56.38;100730.63;5071560;28;20507;-63
2023/10/14 05:21:57;;;;;;;0.40;0.40;;;;;;;18.53;57.46;100739.72;5070504;28;20052;-64
2023/10/14 05:24:23;;;;;;;0.17;0.17;;;;;;;18.61;57.87;100739.13;5071024;28;20032;-64
2023/10/14 05:26:58;;;;;;;0.30;0.30;;;;;;;18.49;58.31;100747.63;5052447;28;20664;-64
2023/10/14 05:29:24;;;;;;;0.20;0.20;;;;;;;18.40;57.86;100750.09;5071098;28;20166;-63
2023/10/14 05:31:50;;;;;;;0.10;0.10;;;;;;;18.64;56.79;100757.63;5070984;28;20708;-63
2023/10/14 05:34:25;;;;;;;0.30;0.30;;;;;;;18.22;59.59;100761.56;5070936;28;20033;-65
2023/10/14 05:36:57;;;;;;;0.30;0.30;;;;;;;18.53;57.21;100766.94;5071124;28;20032;-63
2023/10/14 05:39:24;;;;;;;0.20;0.20;;;;;;;18.92;56.37;100767.81;5070857;28;20021;-63
2023/10/14 05:41:58;;;;;;;0.20;0.20;;;;;;;18.33;57.91;100770.53;5071265;28;20063;-64
2023/10/14 05:44:29;;;;;;;0.30;0.30;;;;;;;18.48;56.72;100772.38;5070816;28;20075;-65
2023/10/14 05:46:55;;;;;;;0.30;0.30;;;;;;;18.12;58.05;100780.66;5054776;28;20028;-64
2023/10/14 05:49:25;;;;;;;0.20;0.20;;;;;;;17.94;57.86;100783.16;5070774;28;20081;-62
2023/10/14 05:51:53;;;;;;;0.30;0.30;;;;;;;18.38;57.33;100779.47;5070404;28;20032;-64
2023/10/14 05:54:22;;;;;;;0.10;0.10;;;;;;;18.20;56.52;100799.13;5071151;28;20104;-64
2023/10/14 05:56:51;;;;;;;0.20;0.20;;;;;;;18.34;57.36;100793.91;5070413;28;20032;-63
2023/10/14 05:59:17;;;;;;;0.20;0.20;;;;;;;19.04;54.45;100801.78;5069945;28;20053;-63
2023/10/14 06:01:46;;;;;;;0.20;0.20;;;;;;;19.46;54.71;100817.59;5070266;28;20050;-63
2023/10/14 06:04:15;;;;;;;0.20;0.20;;;;;;;18.83;56.16;100824.75;5070097;28;20048;-65
2023/10/14 06:06:43;;;;;;;0.20;0.20;;;;;;;18.66;56.80;100828.94;5070519;28;20036;-64
2023/10/14 06:09:09;;;;;;;0.20;0.20;;;;;;;18.99;55.98;100845.38;5070934;28;20013;-65
2023/10/14 06:11:36;;;;;;;0.20;0.20;;;;;;;19.15;55.99;100846.94;5070399;28;20039;-64
2023/10/14 06:14:02;;;;;;;0.25;0.25;;;;;;;19.08;56.59;100859.25;5070000;28;20400;-63
2023/10/14 06:16:29;;;;;;;0.30;0.30;;;;;;;18.66;57.23;100865.13;5070243;28;20028;-65
2023/10/14 06:18:56;;;;;;;0.30;0.30;;;;;;;18.99;56.49;100864.44;5070125;28;20405;-64
2023/10/14 06:21:24;;;;;;;0.20;0.20;;;;;;;18.67;57.18;100879.56;5070285;28;20047;-64
2023/10/14 06:23:49;;;;;;;0.20;0.20;;;;;;;19.00;57.01;100879.72;5070838;28;20453;-64
2023/10/14 06:26:17;;;;;;;0.20;0.20;;;;;;;18.67;57.75;100883.09;5070023;28;20044;-64
2023/10/14 06:28:44;;;;;;;0.20;0.20;;;;;;;18.25;58.91;100896.22;5069722;28;20036;-63
2023/10/14 06:31:09;;;;;;;0.30;0.30;;;;;;;17.80;59.82;100897.06;5069507;28;20043;-63
2023/10/14 06:33:35;;;;;;;0.20;0.20;;;;;;;17.78;60.82;100901.16;5069835;28;20483;-63
2023/10/14 06:36:04;;;;;;;0.28;0.28;;;;;;;17.09;61.92;100912.38;5070518;28;20028;-63
2023/10/14 06:38:29;;;;;;;0.10;0.10;;;;;;;17.45;61.42;100910.59;5069294;28;20388;-64
2023/10/14 06:41:01;;;;;;;0.30;0.30;;;;;;;17.58;60.15;100920.97;5051494;28;20036;-64
2023/10/14 06:43:27;;;;;;;0.30;0.30;;;;;;;17.99;59.57;100924.53;5069232;28;20586;-64
2023/10/14 06:45:54;;;;;;;0.22;0.22;;;;;;;18.24;58.63;100927.22;5074331;28;20036;-65
2023/10/14 06:48:20;;;;;;;0.32;0.32;;;;;;;17.90;59.37;100937.03;5072293;28;20039;-64
2023/10/14 06:50:49;;;;;;;0.20;0.20;;;;;;;17.86;60.21;100936.78;5050381;28;20056;-65
2023/10/14 06:53:17;;;;;;;0.20;0.20;;;;;;;17.95;60.01;100939.75;5069141;28;20025;-65
2023/10/14 06:55:42;;;;;;;0.30;0.30;;;;;;;18.31;58.78;100942.22;5069296;28;20491;-63
2023/10/14 06:58:19;;;;;;;0.30;0.30;;;;;;;17.80;60.43;100945.19;5067861;28;20070;-63
2023/10/14 07:00:45;;;;;;;0.20;0.20;;;;;;;18.38;59.38;100947.34;5068678;28;20036;-63
2023/10/14 07:03:14;;;;;;;0.20;0.20;;;;;;;18.38;59.17;100959.06;5063950;28;20139;-64
2023/10/14 07:05:43;;;;;;;0.10;0.10;;;;;;;18.66;58.45;100954.97;5048722;28;20119;-64
2023/10/14 07:08:13;;;;;;;0.10;0.10;;;;;;;17.88;60.85;100956.34;5048291;28;20500;-62
2023/10/14 07:10:39;;;;;;;0.20;0.20;;;;;;;18.17;61.10;100971.06;5046670;28;20033;-62
2023/10/14 07:13:05;;;;;;;0.30;0.30;;;;;;;18.10;60.30;100975.94;5047841;28;20152;-62
2023/10/14 07:15:34;;;;;;;0.20;0.20;;;;;;;18.82;58.65;100977.53;5047629;28;20548;-62
2023/10/14 07:18:01;;;;;;;0.10;0.10;;;;;;;18.51;58.59;100984.13;5049249;28;20051;-62
2023/10/14 07:20:30;;;;;;;0.20;0.20;;;;;;;18.58;59.14;100985.47;5048436;28;20083;-62
2023/10/14 07:23:00;;;;;;;0.20;0.20;;;;;;;18.38;59.18;100989.00;5045293;28;20056;-63
2023/10/14 07:25:30;;;;;;;0.30;0.30;;;;;;;18.44;59.26;100995.28;5047637;28;20033;-63
2023/10/14 07:27:59;;;;;;;0.20;0.20;;;;;;;18.19;60.30;100989.81;5046805;28;20477;-63
2023/10/14 07:30:28;;;;;;;0.30;0.30;;;;;;;19.25;57.49;100995.91;5048072;28;20067;-63
2023/10/14 07:32:55;;;;;;;0.30;0.30;;;;;;;19.01;57.13;100994.91;5048308;28;20484;-63
2023/10/14 07:35:21;;;;;;;0.20;0.20;;;;;;;18.10;59.43;101007.78;5048479;28;20029;-63
2023/10/14 07:37:49;;;;;;;0.13;0.13;;;;;;;18.18;60.56;101010.75;5048088;28;20480;-64
2023/10/14 07:40:26;;;;;;;0.30;0.30;;;;;;;18.89;58.29;101011.53;5048215;28;20032;-65
2023/10/14 07:42:59;;;;;;;0.30;0.30;;;;;;;19.13;57.61;101018.03;5048590;28;20040;-63
2023/10/14 07:45:34;;;;;;;0.20;0.20;;;;;;;19.23;56.43;101028.06;5046414;28;20025;-64
2023/10/14 07:48:08;;;;;;;0.20;0.20;;;;;;;18.67;57.92;101019.19;5042251;28;20033;-66
2023/10/14 07:50:34;;;;;;;0.15;0.15;;;;;;;18.12;59.56;101025.44;5049398;28;20033;-63
2023/10/14 07:53:07;;;;;;;0.10;0.10;;;;;;;19.33;56.16;101030.81;5052151;28;20098;-64
2023/10/14 07:55:43;;;;;;;0.20;0.20;;;;;;;19.14;57.43;101025.09;5052187;28;20033;-63
2023/10/14 07:58:13;;;;;;;0.25;0.25;;;;;;;19.19;57.15;101030.53;5050095;28;20544;-63
2023/10/14 08:00:40;;;;;;;0.22;0.22;;;;;;;19.25;57.43;101034.06;5051801;28;20124;-64
2023/10/14 08:03:16;;;;;;;0.30;0.30;;;;;;;18.78;57.91;101036.34;5056867;28;20041;-65
2023/10/14 08:05:44;;;;;;;0.15;0.15;;;;;;;19.01;57.61;101036.59;5072263;28;20097;-64
2023/10/14 08:08:10;;;;;;;0.30;0.30;;;;;;;19.13;56.66;101049.91;5072569;28;20037;-64
2023/10/14 08:10:36;;;;;;;0.20;0.20;;;;;;;20.11;54.82;101045.38;5072224;28;20039;-64
2023/10/14 08:13:04;;;;;;;0.10;0.10;;;;;;;19.40;56.21;101055.03;5071860;28;20044;-65
2023/10/14 08:15:30;;;;;;;0.10;0.10;;;;;;;20.12;54.62;101056.03;5071889;28;20021;-66
2023/10/14 08:17:58;;;;;;;0.20;0.20;;;;;;;18.66;57.63;101055.69;5072526;28;20032;-63
2023/10/14 08:20:24;;;;;;;0.10;0.10;;;;;;;19.38;56.16;101055.28;5071865;28;20040;-64
2023/10/14 08:22:49;;;;;;;0.20;0.20;;;;;;;19.67;54.39;101060.91;5071777;28;20048;-64
2023/10/14 08:25:18;;;;;;;0.20;0.20;;;;;;;19.88;52.49;101065.16;5071880;28;20558;-64
2023/10/14 08:27:45;;;;;;;0.13;0.13;;;;;;;19.36;53.55;101070.31;5071768;28;20029;-65
2023/10/14 08:30:11;;;;;;;0.30;0.30;;;;;;;19.93;52.38;101082.31;5072351;28;20025;-63
2023/10/14 08:32:40;;;;;;;0.20;0.20;;;;;;;19.01;54.74;101085.63;5071565;28;20485;-63
2023/10/14 08:35:14;;;;;;;0.20;0.20;;;;;;;19.66;52.33;101083.81;5069139;28;20029;-66
2023/10/14 08:37:48;;;;;;;0.20;0.20;;;;;;;19.74;53.07;101080.50;5071902;28;20408;-64
2023/10/14 08:40:19;;;;;;;0.20;0.20;;;;;;;20.39;50.80;101082.88;5054476;28;20036;-63
2023/10/14 08:42:57;;;;;;;0.30;0.30;;;;;;;20.34;51.04;101085.66;5070552;28;20067;-63
2023/10/14 08:45:27;;;;;;;0.20;0.20;;;;;;;19.63;53.53;101103.47;5071406;28;20110;-64
2023/10/14 08:47:54;;;;;;;0.20;0.20;;;;;;;19.43;54.22;101107.09;5071742;28;20098;-62
2023/10/14 08:50:24;;;;;;;0.20;0.20;;;;;;;19.83;51.87;101114.31;5071636;28;20025;-62
2023/10/14 08:52:51;;;;;;;0.20;0.20;;;;;;;19.32;53.66;101119.06;5071593;28;20028;-64
2023/10/14 08:55:19;;;;;;;0.20;0.20;;;;;;;19.74;54.00;101119.50;5071388;28;20040;-63
2023/10/14 08:57:44;;;;;;;0.10;0.10;;;;;;;19.63;53.38;101136.19;5070668;28;20040;-63
2023/10/14 09:00:19;;;;;;;0.20;0.20;;;;;;;19.41;51.35;101122.91;5071625;28;20112;-64
2023/10/14 09:02:50;;;;;;;0.13;0.13;;;;;;;19.72;50.85;101129.88;5069908;28;20032;-64
2023/10/14 09:05:19;;;;;;;0.10;0.10;;;;;;;19.81;51.11;101135.59;5052460;28;20028;-63
2023/10/14 09:07:46;;;;;;;0.10;0.10;;;;;;;20.82;50.14;101133.06;5070715;28;20420;-64
2023/10/14 09:10:12;;;;;;;0.10;0.10;;;;;;;19.57;50.85;101140.03;5070627;28;20037;-63
2023/10/14 09:12:39;;;;;;;0.20;0.20;;;;;;;19.46;49.43;101141.94;5070335;28;20032;-64
2023/10/14 09:15:05;;;;;;;0.10;0.10;;;;;;;19.38;49.48;101147.16;5070753;28;20094;-64
2023/10/14 09:17:30;;;;;;;0.20;0.20;;;;;;;19.61;49.33;101141.94;5070237;28;20079;-63
2023/10/14 09:19:56;;;;;;;0.10;0.10;;;;;;;20.04;48.20;101149.41;5070329;28;20041;-64
2023/10/14 09:22:24;;;;;;;0.20;0.20;;;;;;;19.82;47.69;101157.13;5070343;28;20037;-63
2023/10/14 09:24:51;;;;;;;0.13;0.13;;;;;;;19.47;49.92;101151.78;5069839;28;20119;-63
2023/10/14 09:27:17;;;;;;;0.20;0.20;;;;;;;19.66;48.73;101147.34;5070684;28;20415;-64
2023/10/14 09:29:43;;;;;;;0.20;0.20;;;;;;;20.87;47.52;101152.16;5070390;28;20052;-65
2023/10/14 09:32:09;;;;;;;0.10;0.10;;;;;;;19.83;49.95;101156.00;5052873;28;20126;-64
2023/10/14 09:34:34;;;;;;;0.20;0.20;;;;;;;20.02;48.39;101164.41;5071650;28;20493;-64
2023/10/14 09:37:10;;;;;;;0.20;0.20;;;;;;;19.43;48.34;101156.16;5067766;28;20044;-64
2023/10/14 09:39:44;;;;;;;0.10;0.10;;;;;;;20.29;47.12;101166.75;5069039;28;20082;-62
2023/10/14 09:42:10;;;;;;;0.20;0.20;;;;;;;21.30;43.99;101156.72;5068986;28;20017;-63
2023/10/14 09:44:42;;;;;;;0.10;0.10;;;;;;;21.28;46.51;101161.66;5070459;28;20025;-63
2023/10/14 09:47:13;;;;;;;0.20;0.20;;;;;;;20.53;47.66;101164.97;5068157;28;20033;-63
2023/10/14 09:49:39;;;;;;;0.10;0.10;;;;;;;19.88;47.89;101177.84;5070400;28;20044;-63
2023/10/14 09:52:14;;;;;;;0.20;0.20;;;;;;;19.58;46.39;101183.38;5070485;28;20086;-63
2023/10/14 09:54:41;;;;;;;0.20;0.20;;;;;;;19.12;46.52;101192.66;5068598;28;20111;-63
2023/10/14 09:57:10;;;;;;;0.10;0.10;;;;;;;19.66;46.46;101181.97;5067966;28;20029;-63
2023/10/14 09:59:37;;;;;;;0.20;0.20;;;;;;;19.75;47.10;101189.31;5067654;28;20032;-62
2023/10/14 10:02:05;;;;;;;0.10;0.10;;;;;;;19.30;46.65;101189.41;5052121;28;20032;-63
2023/10/14 10:04:34;;;;;;;0.20;0.20;;;;;;;19.22;47.53;101193.47;5069855;28;20041;-61
2023/10/14 10:07:41;;;;;;;0.20;0.20;;;;;;;20.07;45.57;101178.00;5070358;28;20166;-62
2023/10/14 10:10:18;;;;;;;0.20;0.20;;;;;;;20.57;45.23;101193.34;5067333;28;20032;-63
2023/10/14 10:12:52;;;;;;;0.10;0.10;;;;;;;20.83;43.65;101184.69;5066723;28;20036;-61
2023/10/14 10:15:19;;;;;;;0.10;0.10;;;;;;;20.98;43.11;101191.97;5069828;28;20036;-64
2023/10/14 10:18:01;;;;;;;0.13;0.13;;;;;;;19.51;50.38;101206.56;5069940;28;20131;-63
2023/10/14 10:20:28;;;;;;;0.10;0.10;;;;;;;18.94;54.40;101215.00;5067158;28;20024;-63
2023/10/14 10:23:01;;;;;;;0.20;0.20;;;;;;;19.11;54.91;101215.53;5069757;28;20488;-63
2023/10/14 10:25:47;;;;;;;0.30;0.30;;;;;;;19.27;54.19;101218.00;5067097;28;20055;-64
2023/10/14 10:28:28;;;;;;;0.20;0.20;;;;;;;18.98;53.76;101218.81;5067630;28;20032;-65
2023/10/14 10:31:09;;;;;;;0.10;0.10;;;;;;;19.11;51.27;101218.25;5067734;28;20037;-64
2023/10/14 10:34:01;;;;;;;0.20;0.20;;;;;;;19.46;49.91;101228.38;5067957;28;20383;-64
2023/10/14 10:36:32;;;;;;;0.20;0.20;;;;;;;19.11;50.02;101221.81;5066628;28;20074;-62
2023/10/14 10:39:17;;;;;;;0.22;0.22;;;;;;;19.63;48.13;101221.53;5069817;28;20533;-64
2023/10/14 10:41:42;;;;;;;0.20;0.20;;;;;;;19.66;50.25;101229.16;5068682;28;20038;-62
2023/10/14 10:44:11;;;;;;;0.20;0.20;;;;;;;20.77;47.49;101221.34;5051265;28;20127;-63
2023/10/14 10:46:50;;;;;;;0.20;0.20;;;;;;;21.18;45.99;101221.91;5069113;28;20103;-63
2023/10/14 10:50:02;;;;;;;0.20;0.20;;;;;;;20.78;45.46;101230.34;5067606;28;20052;-63
2023/10/14 10:52:28;;;;;;;0.13;0.13;;;;;;;18.95;50.57;101228.34;5066543;28;20051;-63
2023/10/14 10:54:56;;;;;;;0.10;0.10;;;;;;;19.87;47.52;101227.22;5069334;28;20048;-63
2023/10/14 10:57:21;;;;;;;0.20;0.20;;;;;;;19.10;46.36;101231.06;5069043;28;20437;-65
2023/10/14 10:59:46;;;;;;;0.15;0.15;;;;;;;19.87;48.12;101228.00;5048787;28;20028;-63
2023/10/14 11:02:13;;;;;;;0.13;0.13;;;;;;;19.62;45.63;101228.06;5068831;28;20032;-62
2023/10/14 11:04:41;;;;;;;0.20;0.20;;;;;;;20.18;45.45;101236.94;5068600;28;20048;-63
2023/10/14 11:07:08;;;;;;;0.20;0.20;;;;;;;19.65;45.52;101235.72;5068803;28;20066;-63
2023/10/14 11:09:39;;;;;;;0.20;0.20;;;;;;;20.39;45.71;101238.50;5068849;28;20827;-63
2023/10/14 11:12:06;;;;;;;0.20;0.20;;;;;;;19.91;46.29;101242.72;5068900;28;20027;-62
2023/10/14 11:14:31;;;;;;;0.17;0.17;;;;;;;18.54;56.46;101261.19;5068434;28;20044;-63
2023/10/14 11:16:57;;;;;;;0.20;0.20;;;;;;;17.71;60.28;101238.47;5067787;28;20519;-64
2023/10/14 11:19:30;;;;;;;0.20;0.20;;;;;;;17.52;59.98;101243.50;5068668;28;20197;-63
2023/10/14 11:21:58;;;;;;;0.30;0.30;;;;;;;18.40;62.32;101249.94;5065489;28;20036;-62
2023/10/14 11:24:24;;;;;;;0.20;0.20;;;;;;;17.42;59.77;101245.28;5068352;28;20048;-62
2023/10/14 11:26:49;;;;;;;0.30;0.30;;;;;;;17.82;57.24;101264.66;5050900;28;20055;-65
2023/10/14 11:29:15;;;;;;;0.20;0.20;;;;;;;17.66;56.77;101289.25;5068622;28;20048;-64
2023/10/14 11:31:44;;;;;;;0.20;0.20;;;;;;;17.52;58.58;101262.53;5068393;28;20067;-63
2023/10/14 11:34:13;;;;;;;0.20;0.20;;;;;;;18.48;54.33;101256.81;5050742;28;20025;-63
2023/10/14 11:36:42;;;;;;;0.20;0.20;;;;;;;18.18;58.42;101274.63;5068613;28;20055;-64
2023/10/14 11:39:12;;;;;;;0.20;0.20;;;;;;;18.28;55.48;101268.41;5066285;28;20060;-64
2023/10/14 11:41:38;;;;;;;0.10;0.10;;;;;;;19.66;53.03;101270.06;5068804;28;20388;-64
2023/10/14 11:44:04;;;;;;;0.20;0.20;;;;;;;19.24;54.88;101264.06;5068554;28;20036;-64
2023/10/14 11:46:29;;;;;;;0.20;0.20;;;;;;;18.67;51.27;101268.88;5069037;28;20035;-64
2023/10/14 11:48:55;;;;;;;0.20;0.20;;;;;;;19.85;53.17;101267.59;5068413;28;20500;-63
2023/10/14 11:51:21;;;;;;;0.17;0.17;;;;;;;19.91;49.58;101263.75;5069360;28;20024;-65
2023/10/14 11:53:50;;;;;;;0.20;0.20;;;;;;;19.92;51.28;101262.66;5069039;28;20373;-63
2023/10/14 11:56:16;;;;;;;0.20;0.20;;;;;;;20.49;49.19;101254.84;5066292;28;20033;-63
2023/10/14 11:58:42;;;;;;;0.25;0.25;;;;;;;19.15;49.17;101269.22;5026198;28;20047;-63
2023/10/14 12:01:12;;;;;;;0.10;0.10;;;;;;;18.81;49.60;101265.34;5060618;28;20044;-64
2023/10/14 12:03:38;;;;;;;0.20;0.20;;;;;;;18.70;51.97;101276.50;5065609;28;20048;-64